sensor_id;sensor_type;location;lat;lon;timestamp;P1;durP1;ratioP1;P2;durP2;ratioP2
41253;SDS011;26987;59.928;30.306;2023-01-13T00:01:24;10.45;;;5.88;;
41253;SDS011;26987;59.928;30.306;2023-01-13T00:03:54;12.40;;;6.18;;
41253;SDS011;26987;59.928;30.306;2023-01-13T00:06:23;13.68;;;6.65;;
41253;SDS011;26987;59.928;30.306;2023-01-13T00:08:52;12.55;;;6.10;;
41253;SDS011;26987;59.928;30.306;2023-01-13T00:11:21;13.98;;;7.10;;
41253;SDS011;26987;59.928;30.306;2023-01-13T00:13:51;12.43;;;6.45;;
41253;SDS011;26987;59.928;30.306;2023-01-13T00:16:18;12.18;;;5.68;;
41253;SDS011;26987;59.928;30.306;2023-01-13T00:18:47;12.68;;;6.50;;
41253;SDS011;26987;59.928;30.306;2023-01-13T00:21:17;11.07;;;5.82;;
41253;SDS011;26987;59.928;30.306;2023-01-13T00:23:46;13.65;;;6.18;;
41253;SDS011;26987;59.928;30.306;2023-01-13T00:26:15;11.98;;;5.82;;
41253;SDS011;26987;59.928;30.306;2023-01-13T00:28:46;11.90;;;5.13;;
41253;SDS011;26987;59.928;30.306;2023-01-13T00:31:15;12.45;;;5.82;;
41253;SDS011;26987;59.928;30.306;2023-01-13T00:33:44;12.00;;;6.20;;
41253;SDS011;26987;59.928;30.306;2023-01-13T00:36:13;9.93;;;5.60;;
41253;SDS011;26987;59.928;30.306;2023-01-13T00:38:43;11.45;;;5.95;;
41253;SDS011;26987;59.928;30.306;2023-01-13T00:41:13;8.38;;;4.72;;
41253;SDS011;26987;59.928;30.306;2023-01-13T00:43:42;9.10;;;5.20;;
41253;SDS011;26987;59.928;30.306;2023-01-13T00:46:12;9.30;;;5.20;;
41253;SDS011;26987;59.928;30.306;2023-01-13T00:48:41;10.43;;;5.68;;
41253;SDS011;26987;59.928;30.306;2023-01-13T00:51:10;13.75;;;5.93;;
41253;SDS011;26987;59.928;30.306;2023-01-13T00:53:41;19.38;;;5.47;;
41253;SDS011;26987;59.928;30.306;2023-01-13T00:56:17;9.45;;;5.07;;
41253;SDS011;26987;59.928;30.306;2023-01-13T00:58:47;10.35;;;5.25;;
41253;SDS011;26987;59.928;30.306;2023-01-13T01:01:16;8.15;;;4.93;;
41253;SDS011;26987;59.928;30.306;2023-01-13T01:03:46;8.43;;;4.70;;
41253;SDS011;26987;59.928;30.306;2023-01-13T01:06:15;13.13;;;4.75;;
41253;SDS011;26987;59.928;30.306;2023-01-13T01:08:44;11.40;;;5.35;;
41253;SDS011;26987;59.928;30.306;2023-01-13T01:11:13;12.75;;;5.63;;
41253;SDS011;26987;59.928;30.306;2023-01-13T01:13:42;8.68;;;4.57;;
41253;SDS011;26987;59.928;30.306;2023-01-13T01:16:11;10.10;;;5.43;;
41253;SDS011;26987;59.928;30.306;2023-01-13T01:18:42;13.13;;;5.32;;
41253;SDS011;26987;59.928;30.306;2023-01-13T01:21:11;10.30;;;5.20;;
41253;SDS011;26987;59.928;30.306;2023-01-13T01:23:40;9.98;;;5.25;;
41253;SDS011;26987;59.928;30.306;2023-01-13T01:26:09;8.15;;;4.57;;
41253;SDS011;26987;59.928;30.306;2023-01-13T01:28:39;9.75;;;5.70;;
41253;SDS011;26987;59.928;30.306;2023-01-13T01:31:08;13.93;;;5.47;;
41253;SDS011;26987;59.928;30.306;2023-01-13T01:33:37;11.15;;;5.22;;
41253;SDS011;26987;59.928;30.306;2023-01-13T01:36:08;10.25;;;5.22;;
41253;SDS011;26987;59.928;30.306;2023-01-13T01:38:37;13.27;;;5.55;;
41253;SDS011;26987;59.928;30.306;2023-01-13T01:41:05;12.38;;;5.72;;
41253;SDS011;26987;59.928;30.306;2023-01-13T01:43:47;9.23;;;4.88;;
41253;SDS011;26987;59.928;30.306;2023-01-13T01:46:28;9.88;;;5.25;;
41253;SDS011;26987;59.928;30.306;2023-01-13T01:48:59;11.35;;;5.45;;
41253;SDS011;26987;59.928;30.306;2023-01-13T01:51:33;7.32;;;4.85;;
41253;SDS011;26987;59.928;30.306;2023-01-13T01:54:05;8.75;;;5.13;;
41253;SDS011;26987;59.928;30.306;2023-01-13T01:56:37;9.07;;;4.97;;
41253;SDS011;26987;59.928;30.306;2023-01-13T01:59:08;8.77;;;4.93;;
41253;SDS011;26987;59.928;30.306;2023-01-13T02:01:36;7.97;;;4.18;;
41253;SDS011;26987;59.928;30.306;2023-01-13T02:04:08;7.82;;;4.45;;
41253;SDS011;26987;59.928;30.306;2023-01-13T02:06:40;9.18;;;4.72;;
41253;SDS011;26987;59.928;30.306;2023-01-13T02:09:09;8.35;;;4.80;;
41253;SDS011;26987;59.928;30.306;2023-01-13T02:11:37;8.32;;;4.47;;
41253;SDS011;26987;59.928;30.306;2023-01-13T02:14:22;7.80;;;4.30;;
41253;SDS011;26987;59.928;30.306;2023-01-13T02:16:54;7.47;;;4.80;;
41253;SDS011;26987;59.928;30.306;2023-01-13T02:19:44;8.25;;;4.13;;
41253;SDS011;26987;59.928;30.306;2023-01-13T02:22:40;7.22;;;3.83;;
41253;SDS011;26987;59.928;30.306;2023-01-13T02:28:26;10.90;;;3.80;;
41253;SDS011;26987;59.928;30.306;2023-01-13T02:31:35;6.88;;;3.65;;
41253;SDS011;26987;59.928;30.306;2023-01-13T02:34:08;7.05;;;3.60;;
41253;SDS011;26987;59.928;30.306;2023-01-13T02:36:38;7.72;;;3.97;;
41253;SDS011;26987;59.928;30.306;2023-01-13T02:39:15;6.20;;;3.80;;
41253;SDS011;26987;59.928;30.306;2023-01-13T02:41:51;7.07;;;3.78;;
41253;SDS011;26987;59.928;30.306;2023-01-13T02:44:41;6.13;;;3.80;;
41253;SDS011;26987;59.928;30.306;2023-01-13T02:47:15;7.32;;;4.10;;
41253;SDS011;26987;59.928;30.306;2023-01-13T02:49:47;6.55;;;3.53;;
41253;SDS011;26987;59.928;30.306;2023-01-13T02:52:19;7.65;;;4.22;;
41253;SDS011;26987;59.928;30.306;2023-01-13T02:54:53;11.20;;;4.18;;
41253;SDS011;26987;59.928;30.306;2023-01-13T02:57:23;6.80;;;3.65;;
41253;SDS011;26987;59.928;30.306;2023-01-13T02:59:55;7.80;;;3.72;;
41253;SDS011;26987;59.928;30.306;2023-01-13T03:02:24;9.25;;;3.78;;
41253;SDS011;26987;59.928;30.306;2023-01-13T03:04:53;6.30;;;3.45;;
41253;SDS011;26987;59.928;30.306;2023-01-13T03:07:30;6.22;;;3.67;;
41253;SDS011;26987;59.928;30.306;2023-01-13T03:10:26;8.50;;;4.00;;
41253;SDS011;26987;59.928;30.306;2023-01-13T03:13:12;7.60;;;4.82;;
41253;SDS011;26987;59.928;30.306;2023-01-13T03:15:48;6.35;;;3.60;;
41253;SDS011;26987;59.928;30.306;2023-01-13T03:18:34;10.85;;;5.15;;
41253;SDS011;26987;59.928;30.306;2023-01-13T03:21:11;6.40;;;3.70;;
41253;SDS011;26987;59.928;30.306;2023-01-13T03:23:46;8.93;;;4.30;;
41253;SDS011;26987;59.928;30.306;2023-01-13T03:26:19;23.98;;;5.20;;
41253;SDS011;26987;59.928;30.306;2023-01-13T03:28:57;7.18;;;4.20;;
41253;SDS011;26987;59.928;30.306;2023-01-13T03:31:33;7.80;;;4.43;;
41253;SDS011;26987;59.928;30.306;2023-01-13T03:34:10;6.20;;;3.70;;
41253;SDS011;26987;59.928;30.306;2023-01-13T03:36:41;12.57;;;5.00;;
41253;SDS011;26987;59.928;30.306;2023-01-13T03:39:14;9.65;;;5.00;;
41253;SDS011;26987;59.928;30.306;2023-01-13T03:41:48;9.98;;;4.13;;
41253;SDS011;26987;59.928;30.306;2023-01-13T03:44:23;5.78;;;3.10;;
41253;SDS011;26987;59.928;30.306;2023-01-13T03:46:59;9.20;;;5.05;;
41253;SDS011;26987;59.928;30.306;2023-01-13T03:49:35;12.52;;;4.65;;
41253;SDS011;26987;59.928;30.306;2023-01-13T03:52:08;9.15;;;4.72;;
41253;SDS011;26987;59.928;30.306;2023-01-13T03:54:42;10.07;;;4.07;;
41253;SDS011;26987;59.928;30.306;2023-01-13T03:57:14;13.70;;;4.72;;
41253;SDS011;26987;59.928;30.306;2023-01-13T03:59:46;9.05;;;4.57;;
41253;SDS011;26987;59.928;30.306;2023-01-13T04:02:18;12.45;;;5.50;;
41253;SDS011;26987;59.928;30.306;2023-01-13T04:04:56;10.95;;;5.18;;
41253;SDS011;26987;59.928;30.306;2023-01-13T04:07:28;14.13;;;4.82;;
41253;SDS011;26987;59.928;30.306;2023-01-13T04:10:04;9.65;;;4.72;;
41253;SDS011;26987;59.928;30.306;2023-01-13T04:12:35;8.60;;;4.32;;
41253;SDS011;26987;59.928;30.306;2023-01-13T04:15:22;10.43;;;4.63;;
41253;SDS011;26987;59.928;30.306;2023-01-13T04:17:53;11.40;;;5.00;;
41253;SDS011;26987;59.928;30.306;2023-01-13T04:20:22;10.10;;;4.40;;
41253;SDS011;26987;59.928;30.306;2023-01-13T04:22:50;11.27;;;4.68;;
41253;SDS011;26987;59.928;30.306;2023-01-13T04:25:18;11.32;;;5.00;;
41253;SDS011;26987;59.928;30.306;2023-01-13T04:27:46;8.10;;;4.55;;
41253;SDS011;26987;59.928;30.306;2023-01-13T04:30:14;12.73;;;4.97;;
41253;SDS011;26987;59.928;30.306;2023-01-13T04:32:42;10.50;;;4.63;;
41253;SDS011;26987;59.928;30.306;2023-01-13T04:35:10;13.90;;;4.82;;
41253;SDS011;26987;59.928;30.306;2023-01-13T04:37:39;11.93;;;5.88;;
41253;SDS011;26987;59.928;30.306;2023-01-13T04:40:07;10.68;;;5.43;;
41253;SDS011;26987;59.928;30.306;2023-01-13T04:42:36;30.60;;;5.63;;
41253;SDS011;26987;59.928;30.306;2023-01-13T04:45:04;11.48;;;5.18;;
41253;SDS011;26987;59.928;30.306;2023-01-13T04:47:33;10.25;;;4.53;;
41253;SDS011;26987;59.928;30.306;2023-01-13T04:50:00;11.60;;;4.43;;
41253;SDS011;26987;59.928;30.306;2023-01-13T04:52:28;7.70;;;3.92;;
41253;SDS011;26987;59.928;30.306;2023-01-13T04:54:58;10.27;;;4.15;;
41253;SDS011;26987;59.928;30.306;2023-01-13T04:57:26;9.10;;;4.28;;
41253;SDS011;26987;59.928;30.306;2023-01-13T04:59:54;8.15;;;4.07;;
41253;SDS011;26987;59.928;30.306;2023-01-13T05:02:22;9.00;;;3.95;;
41253;SDS011;26987;59.928;30.306;2023-01-13T05:04:49;10.27;;;4.47;;
41253;SDS011;26987;59.928;30.306;2023-01-13T05:07:17;7.22;;;4.15;;
41253;SDS011;26987;59.928;30.306;2023-01-13T05:09:45;7.65;;;3.38;;
41253;SDS011;26987;59.928;30.306;2023-01-13T05:12:14;8.75;;;4.35;;
41253;SDS011;26987;59.928;30.306;2023-01-13T05:15:00;9.70;;;4.68;;
41253;SDS011;26987;59.928;30.306;2023-01-13T05:17:45;11.25;;;4.80;;
41253;SDS011;26987;59.928;30.306;2023-01-13T05:20:14;11.43;;;4.45;;
41253;SDS011;26987;59.928;30.306;2023-01-13T05:22:43;12.80;;;4.53;;
41253;SDS011;26987;59.928;30.306;2023-01-13T05:25:28;9.90;;;5.25;;
41253;SDS011;26987;59.928;30.306;2023-01-13T05:27:58;8.75;;;4.47;;
41253;SDS011;26987;59.928;30.306;2023-01-13T05:30:27;9.82;;;4.88;;
41253;SDS011;26987;59.928;30.306;2023-01-13T05:32:55;10.55;;;4.75;;
41253;SDS011;26987;59.928;30.306;2023-01-13T05:35:24;12.10;;;5.82;;
41253;SDS011;26987;59.928;30.306;2023-01-13T05:37:52;12.18;;;4.60;;
41253;SDS011;26987;59.928;30.306;2023-01-13T05:40:21;11.60;;;5.93;;
41253;SDS011;26987;59.928;30.306;2023-01-13T05:43:09;11.57;;;4.60;;
41253;SDS011;26987;59.928;30.306;2023-01-13T05:45:48;15.77;;;5.07;;
41253;SDS011;26987;59.928;30.306;2023-01-13T05:48:17;18.90;;;4.97;;
41253;SDS011;26987;59.928;30.306;2023-01-13T05:50:46;12.13;;;5.00;;
41253;SDS011;26987;59.928;30.306;2023-01-13T05:53:15;11.18;;;4.57;;
41253;SDS011;26987;59.928;30.306;2023-01-13T05:55:43;8.65;;;4.25;;
41253;SDS011;26987;59.928;30.306;2023-01-13T05:58:13;13.52;;;4.78;;
41253;SDS011;26987;59.928;30.306;2023-01-13T06:00:42;9.20;;;4.32;;
41253;SDS011;26987;59.928;30.306;2023-01-13T06:03:11;12.05;;;4.75;;
41253;SDS011;26987;59.928;30.306;2023-01-13T06:05:39;12.30;;;4.25;;
41253;SDS011;26987;59.928;30.306;2023-01-13T06:08:07;11.38;;;4.30;;
41253;SDS011;26987;59.928;30.306;2023-01-13T06:10:35;7.85;;;4.65;;
41253;SDS011;26987;59.928;30.306;2023-01-13T06:13:03;9.13;;;4.80;;
41253;SDS011;26987;59.928;30.306;2023-01-13T06:15:33;18.23;;;5.63;;
41253;SDS011;26987;59.928;30.306;2023-01-13T06:18:01;10.25;;;4.22;;
41253;SDS011;26987;59.928;30.306;2023-01-13T06:20:30;10.20;;;4.90;;
41253;SDS011;26987;59.928;30.306;2023-01-13T06:22:58;11.88;;;5.30;;
41253;SDS011;26987;59.928;30.306;2023-01-13T06:25:34;14.82;;;6.00;;
41253;SDS011;26987;59.928;30.306;2023-01-13T06:28:06;17.77;;;5.60;;
41253;SDS011;26987;59.928;30.306;2023-01-13T06:30:36;11.23;;;4.88;;
41253;SDS011;26987;59.928;30.306;2023-01-13T06:33:08;15.65;;;5.82;;
41253;SDS011;26987;59.928;30.306;2023-01-13T06:35:40;14.77;;;4.88;;
41253;SDS011;26987;59.928;30.306;2023-01-13T06:38:11;17.33;;;5.85;;
41253;SDS011;26987;59.928;30.306;2023-01-13T06:40:43;11.35;;;5.45;;
41253;SDS011;26987;59.928;30.306;2023-01-13T06:43:12;12.52;;;5.53;;
41253;SDS011;26987;59.928;30.306;2023-01-13T06:45:50;13.18;;;5.38;;
41253;SDS011;26987;59.928;30.306;2023-01-13T06:48:21;17.23;;;5.75;;
41253;SDS011;26987;59.928;30.306;2023-01-13T06:50:50;12.70;;;6.55;;
41253;SDS011;26987;59.928;30.306;2023-01-13T06:53:17;12.80;;;6.43;;
41253;SDS011;26987;59.928;30.306;2023-01-13T06:55:45;12.38;;;6.07;;
41253;SDS011;26987;59.928;30.306;2023-01-13T06:58:13;13.40;;;5.40;;
41253;SDS011;26987;59.928;30.306;2023-01-13T07:00:41;12.25;;;5.82;;
41253;SDS011;26987;59.928;30.306;2023-01-13T07:03:11;16.05;;;5.65;;
41253;SDS011;26987;59.928;30.306;2023-01-13T07:05:42;12.93;;;5.65;;
41253;SDS011;26987;59.928;30.306;2023-01-13T07:08:16;18.45;;;6.30;;
41253;SDS011;26987;59.928;30.306;2023-01-13T07:10:44;16.92;;;5.75;;
41253;SDS011;26987;59.928;30.306;2023-01-13T07:13:12;16.73;;;5.63;;
41253;SDS011;26987;59.928;30.306;2023-01-13T07:15:58;11.15;;;6.43;;
41253;SDS011;26987;59.928;30.306;2023-01-13T07:18:29;11.23;;;5.63;;
41253;SDS011;26987;59.928;30.306;2023-01-13T07:20:58;14.70;;;6.03;;
41253;SDS011;26987;59.928;30.306;2023-01-13T07:23:27;11.27;;;5.50;;
41253;SDS011;26987;59.928;30.306;2023-01-13T07:25:56;11.60;;;5.43;;
41253;SDS011;26987;59.928;30.306;2023-01-13T07:28:25;13.38;;;6.97;;
41253;SDS011;26987;59.928;30.306;2023-01-13T07:30:54;14.85;;;6.50;;
41253;SDS011;26987;59.928;30.306;2023-01-13T07:33:22;14.82;;;6.30;;
41253;SDS011;26987;59.928;30.306;2023-01-13T07:35:55;16.25;;;6.47;;
41253;SDS011;26987;59.928;30.306;2023-01-13T07:38:25;17.75;;;6.28;;
41253;SDS011;26987;59.928;30.306;2023-01-13T07:40:53;16.20;;;6.55;;
41253;SDS011;26987;59.928;30.306;2023-01-13T07:43:21;18.38;;;5.65;;
41253;SDS011;26987;59.928;30.306;2023-01-13T07:45:56;11.32;;;5.65;;
41253;SDS011;26987;59.928;30.306;2023-01-13T07:48:25;13.75;;;5.82;;
41253;SDS011;26987;59.928;30.306;2023-01-13T07:50:53;12.90;;;6.15;;
41253;SDS011;26987;59.928;30.306;2023-01-13T07:53:23;25.98;;;6.53;;
41253;SDS011;26987;59.928;30.306;2023-01-13T07:55:53;15.05;;;5.78;;
41253;SDS011;26987;59.928;30.306;2023-01-13T07:58:22;9.43;;;5.35;;
41253;SDS011;26987;59.928;30.306;2023-01-13T08:00:51;10.18;;;5.75;;
41253;SDS011;26987;59.928;30.306;2023-01-13T08:03:19;13.02;;;5.53;;
41253;SDS011;26987;59.928;30.306;2023-01-13T08:05:47;11.77;;;5.55;;
41253;SDS011;26987;59.928;30.306;2023-01-13T08:08:17;20.17;;;6.03;;
41253;SDS011;26987;59.928;30.306;2023-01-13T08:10:45;9.55;;;5.38;;
41253;SDS011;26987;59.928;30.306;2023-01-13T08:13:13;11.45;;;5.35;;
41253;SDS011;26987;59.928;30.306;2023-01-13T08:15:46;12.55;;;6.38;;
41253;SDS011;26987;59.928;30.306;2023-01-13T08:18:15;11.68;;;6.53;;
41253;SDS011;26987;59.928;30.306;2023-01-13T08:20:46;15.90;;;6.63;;
41253;SDS011;26987;59.928;30.306;2023-01-13T08:23:14;15.18;;;6.70;;
41253;SDS011;26987;59.928;30.306;2023-01-13T08:25:44;13.32;;;5.95;;
41253;SDS011;26987;59.928;30.306;2023-01-13T08:28:12;13.13;;;5.72;;
41253;SDS011;26987;59.928;30.306;2023-01-13T08:30:42;12.93;;;5.97;;
41253;SDS011;26987;59.928;30.306;2023-01-13T08:33:10;8.93;;;5.22;;
41253;SDS011;26987;59.928;30.306;2023-01-13T08:35:39;10.20;;;5.25;;
41253;SDS011;26987;59.928;30.306;2023-01-13T08:38:07;11.52;;;6.00;;
41253;SDS011;26987;59.928;30.306;2023-01-13T08:40:37;11.52;;;5.07;;
41253;SDS011;26987;59.928;30.306;2023-01-13T08:43:05;9.27;;;5.00;;
41253;SDS011;26987;59.928;30.306;2023-01-13T08:45:33;10.27;;;5.32;;
41253;SDS011;26987;59.928;30.306;2023-01-13T08:48:01;12.85;;;5.40;;
41253;SDS011;26987;59.928;30.306;2023-01-13T08:50:29;9.02;;;4.60;;
41253;SDS011;26987;59.928;30.306;2023-01-13T08:52:57;10.23;;;5.70;;
41253;SDS011;26987;59.928;30.306;2023-01-13T08:55:26;11.90;;;5.80;;
41253;SDS011;26987;59.928;30.306;2023-01-13T08:57:55;20.58;;;5.78;;
41253;SDS011;26987;59.928;30.306;2023-01-13T09:00:23;10.07;;;4.95;;
41253;SDS011;26987;59.928;30.306;2023-01-13T09:02:51;18.20;;;6.45;;
41253;SDS011;26987;59.928;30.306;2023-01-13T09:05:19;7.93;;;4.15;;
41253;SDS011;26987;59.928;30.306;2023-01-13T09:07:47;6.85;;;3.45;;
41253;SDS011;26987;59.928;30.306;2023-01-13T09:10:15;12.80;;;3.28;;
41253;SDS011;26987;59.928;30.306;2023-01-13T09:12:43;8.05;;;3.70;;
41253;SDS011;26987;59.928;30.306;2023-01-13T09:15:29;7.10;;;4.00;;
41253;SDS011;26987;59.928;30.306;2023-01-13T09:17:57;7.75;;;4.30;;
41253;SDS011;26987;59.928;30.306;2023-01-13T09:20:25;8.13;;;4.03;;
41253;SDS011;26987;59.928;30.306;2023-01-13T09:22:53;11.98;;;4.65;;
41253;SDS011;26987;59.928;30.306;2023-01-13T09:25:21;10.45;;;4.97;;
41253;SDS011;26987;59.928;30.306;2023-01-13T09:27:48;12.93;;;4.78;;
41253;SDS011;26987;59.928;30.306;2023-01-13T09:30:16;11.02;;;4.75;;
41253;SDS011;26987;59.928;30.306;2023-01-13T09:32:46;12.98;;;5.78;;
41253;SDS011;26987;59.928;30.306;2023-01-13T09:35:14;13.80;;;5.35;;
41253;SDS011;26987;59.928;30.306;2023-01-13T09:37:42;14.95;;;6.32;;
41253;SDS011;26987;59.928;30.306;2023-01-13T09:40:11;20.83;;;5.45;;
41253;SDS011;26987;59.928;30.306;2023-01-13T09:42:45;17.33;;;5.28;;
41253;SDS011;26987;59.928;30.306;2023-01-13T09:45:47;12.77;;;5.80;;
41253;SDS011;26987;59.928;30.306;2023-01-13T09:48:21;14.07;;;4.82;;
41253;SDS011;26987;59.928;30.306;2023-01-13T09:50:57;11.55;;;4.47;;
41253;SDS011;26987;59.928;30.306;2023-01-13T09:53:36;13.57;;;4.80;;
41253;SDS011;26987;59.928;30.306;2023-01-13T09:56:06;22.80;;;5.07;;
41253;SDS011;26987;59.928;30.306;2023-01-13T09:58:37;22.42;;;5.38;;
41253;SDS011;26987;59.928;30.306;2023-01-13T10:01:07;14.02;;;4.80;;
41253;SDS011;26987;59.928;30.306;2023-01-13T10:03:46;13.23;;;5.60;;
41253;SDS011;26987;59.928;30.306;2023-01-13T10:06:16;10.85;;;4.82;;
41253;SDS011;26987;59.928;30.306;2023-01-13T10:08:47;8.05;;;4.13;;
41253;SDS011;26987;59.928;30.306;2023-01-13T10:11:16;8.25;;;4.35;;
41253;SDS011;26987;59.928;30.306;2023-01-13T10:14:09;14.60;;;5.90;;
41253;SDS011;26987;59.928;30.306;2023-01-13T10:16:40;12.23;;;4.50;;
41253;SDS011;26987;59.928;30.306;2023-01-13T10:19:18;11.45;;;4.20;;
41253;SDS011;26987;59.928;30.306;2023-01-13T10:21:57;10.25;;;4.70;;
41253;SDS011;26987;59.928;30.306;2023-01-13T10:24:57;13.02;;;4.10;;
41253;SDS011;26987;59.928;30.306;2023-01-13T10:27:36;18.97;;;4.10;;
41253;SDS011;26987;59.928;30.306;2023-01-13T10:30:14;11.55;;;5.22;;
41253;SDS011;26987;59.928;30.306;2023-01-13T10:32:46;10.25;;;4.13;;
41253;SDS011;26987;59.928;30.306;2023-01-13T10:35:23;10.10;;;4.30;;
41253;SDS011;26987;59.928;30.306;2023-01-13T10:38:22;10.10;;;3.55;;
41253;SDS011;26987;59.928;30.306;2023-01-13T10:40:52;4.63;;;3.10;;
41253;SDS011;26987;59.928;30.306;2023-01-13T10:43:21;9.73;;;4.03;;
41253;SDS011;26987;59.928;30.306;2023-01-13T10:45:51;16.02;;;4.60;;
41253;SDS011;26987;59.928;30.306;2023-01-13T10:48:30;6.43;;;3.63;;
41253;SDS011;26987;59.928;30.306;2023-01-13T10:51:10;9.85;;;4.63;;
41253;SDS011;26987;59.928;30.306;2023-01-13T10:53:45;12.15;;;4.45;;
41253;SDS011;26987;59.928;30.306;2023-01-13T10:56:18;9.23;;;4.43;;
41253;SDS011;26987;59.928;30.306;2023-01-13T10:58:47;11.82;;;4.00;;
41253;SDS011;26987;59.928;30.306;2023-01-13T11:01:18;9.30;;;4.50;;
41253;SDS011;26987;59.928;30.306;2023-01-13T11:03:51;10.80;;;4.53;;
41253;SDS011;26987;59.928;30.306;2023-01-13T11:06:22;11.63;;;4.28;;
41253;SDS011;26987;59.928;30.306;2023-01-13T11:08:52;11.10;;;4.47;;
41253;SDS011;26987;59.928;30.306;2023-01-13T11:11:28;8.52;;;4.43;;
41253;SDS011;26987;59.928;30.306;2023-01-13T11:14:06;11.00;;;4.60;;
41253;SDS011;26987;59.928;30.306;2023-01-13T11:17:09;14.63;;;5.05;;
41253;SDS011;26987;59.928;30.306;2023-01-13T11:19:50;8.85;;;4.22;;
41253;SDS011;26987;59.928;30.306;2023-01-13T11:22:28;11.45;;;4.65;;
41253;SDS011;26987;59.928;30.306;2023-01-13T11:25:00;9.60;;;4.70;;
41253;SDS011;26987;59.928;30.306;2023-01-13T11:27:35;9.80;;;5.00;;
41253;SDS011;26987;59.928;30.306;2023-01-13T11:30:10;11.30;;;4.47;;
41253;SDS011;26987;59.928;30.306;2023-01-13T11:32:55;8.23;;;4.20;;
41253;SDS011;26987;59.928;30.306;2023-01-13T11:35:31;8.98;;;4.30;;
41253;SDS011;26987;59.928;30.306;2023-01-13T11:38:08;12.77;;;5.90;;
41253;SDS011;26987;59.928;30.306;2023-01-13T11:43:10;11.88;;;5.10;;
41253;SDS011;26987;59.928;30.306;2023-01-13T11:45:45;12.18;;;5.78;;
41253;SDS011;26987;59.928;30.306;2023-01-13T11:48:19;14.82;;;5.40;;
41253;SDS011;26987;59.928;30.306;2023-01-13T11:50:50;10.52;;;5.32;;
41253;SDS011;26987;59.928;30.306;2023-01-13T11:53:30;15.32;;;4.88;;
41253;SDS011;26987;59.928;30.306;2023-01-13T11:56:14;9.00;;;5.25;;
41253;SDS011;26987;59.928;30.306;2023-01-13T11:59:03;12.90;;;5.20;;
41253;SDS011;26987;59.928;30.306;2023-01-13T12:04:31;20.65;;;6.95;;
41253;SDS011;26987;59.928;30.306;2023-01-13T12:07:09;10.50;;;5.60;;
41253;SDS011;26987;59.928;30.306;2023-01-13T12:09:50;18.75;;;7.25;;
41253;SDS011;26987;59.928;30.306;2023-01-13T12:12:31;17.13;;;6.07;;
41253;SDS011;26987;59.928;30.306;2023-01-13T12:18:25;13.02;;;5.93;;
41253;SDS011;26987;59.928;30.306;2023-01-13T12:21:10;13.52;;;5.80;;
41253;SDS011;26987;59.928;30.306;2023-01-13T12:23:46;15.82;;;5.63;;
41253;SDS011;26987;59.928;30.306;2023-01-13T12:26:23;13.50;;;6.20;;
41253;SDS011;26987;59.928;30.306;2023-01-13T12:28:53;12.52;;;6.25;;
41253;SDS011;26987;59.928;30.306;2023-01-13T12:31:24;19.60;;;6.22;;
41253;SDS011;26987;59.928;30.306;2023-01-13T12:33:57;16.05;;;5.20;;
41253;SDS011;26987;59.928;30.306;2023-01-13T12:36:33;17.45;;;6.72;;
41253;SDS011;26987;59.928;30.306;2023-01-13T12:39:22;15.20;;;6.10;;
41253;SDS011;26987;59.928;30.306;2023-01-13T12:47:45;12.70;;;5.45;;
41253;SDS011;26987;59.928;30.306;2023-01-13T13:04:53;13.40;;;6.82;;
41253;SDS011;26987;59.928;30.306;2023-01-13T13:10:14;12.63;;;6.47;;
41253;SDS011;26987;59.928;30.306;2023-01-13T13:15:37;26.00;;;8.55;;
41253;SDS011;26987;59.928;30.306;2023-01-13T13:18:22;16.10;;;8.18;;
41253;SDS011;26987;59.928;30.306;2023-01-13T13:20:59;15.57;;;7.82;;
41253;SDS011;26987;59.928;30.306;2023-01-13T13:26:31;20.75;;;8.07;;
41253;SDS011;26987;59.928;30.306;2023-01-13T13:32:16;21.10;;;10.88;;
41253;SDS011;26987;59.928;30.306;2023-01-13T13:35:07;16.40;;;9.43;;
41253;SDS011;26987;59.928;30.306;2023-01-13T13:37:54;14.77;;;8.93;;
41253;SDS011;26987;59.928;30.306;2023-01-13T13:40:48;18.58;;;8.60;;
41253;SDS011;26987;59.928;30.306;2023-01-13T13:43:36;22.17;;;9.00;;
41253;SDS011;26987;59.928;30.306;2023-01-13T13:46:25;29.20;;;11.20;;
41253;SDS011;26987;59.928;30.306;2023-01-13T13:49:15;22.40;;;10.75;;
41253;SDS011;26987;59.928;30.306;2023-01-13T13:51:45;24.83;;;10.38;;
41253;SDS011;26987;59.928;30.306;2023-01-13T13:54:18;18.40;;;9.38;;
41253;SDS011;26987;59.928;30.306;2023-01-13T13:56:48;25.75;;;10.00;;
41253;SDS011;26987;59.928;30.306;2023-01-13T13:59:20;23.40;;;10.43;;
41253;SDS011;26987;59.928;30.306;2023-01-13T14:01:51;16.13;;;8.00;;
41253;SDS011;26987;59.928;30.306;2023-01-13T14:04:27;22.38;;;9.73;;
41253;SDS011;26987;59.928;30.306;2023-01-13T14:06:58;17.65;;;8.95;;
41253;SDS011;26987;59.928;30.306;2023-01-13T14:09:43;20.58;;;9.30;;
41253;SDS011;26987;59.928;30.306;2023-01-13T14:12:15;17.33;;;7.60;;
41253;SDS011;26987;59.928;30.306;2023-01-13T14:14:45;21.30;;;9.57;;
41253;SDS011;26987;59.928;30.306;2023-01-13T14:17:17;18.98;;;10.32;;
41253;SDS011;26987;59.928;30.306;2023-01-13T14:19:54;18.50;;;10.18;;
41253;SDS011;26987;59.928;30.306;2023-01-13T14:22:25;19.52;;;9.50;;
41253;SDS011;26987;59.928;30.306;2023-01-13T14:24:53;16.95;;;9.13;;
41253;SDS011;26987;59.928;30.306;2023-01-13T14:27:23;20.73;;;8.75;;
41253;SDS011;26987;59.928;30.306;2023-01-13T14:29:52;17.70;;;8.90;;
41253;SDS011;26987;59.928;30.306;2023-01-13T14:32:24;16.48;;;8.60;;
41253;SDS011;26987;59.928;30.306;2023-01-13T14:35:01;24.80;;;10.63;;
41253;SDS011;26987;59.928;30.306;2023-01-13T14:37:32;23.58;;;8.68;;
41253;SDS011;26987;59.928;30.306;2023-01-13T14:40:05;16.27;;;8.77;;
41253;SDS011;26987;59.928;30.306;2023-01-13T14:42:56;22.67;;;10.20;;
41253;SDS011;26987;59.928;30.306;2023-01-13T14:45:25;17.23;;;9.98;;
41253;SDS011;26987;59.928;30.306;2023-01-13T14:47:55;17.60;;;10.32;;
41253;SDS011;26987;59.928;30.306;2023-01-13T14:50:28;17.70;;;10.32;;
41253;SDS011;26987;59.928;30.306;2023-01-13T14:52:59;24.98;;;13.25;;
41253;SDS011;26987;59.928;30.306;2023-01-13T14:55:27;24.60;;;10.25;;
41253;SDS011;26987;59.928;30.306;2023-01-13T14:58:16;18.95;;;10.40;;
41253;SDS011;26987;59.928;30.306;2023-01-13T15:00:51;21.20;;;11.63;;
41253;SDS011;26987;59.928;30.306;2023-01-13T15:03:39;23.17;;;11.75;;
41253;SDS011;26987;59.928;30.306;2023-01-13T15:06:21;21.02;;;10.45;;
41253;SDS011;26987;59.928;30.306;2023-01-13T15:08:50;19.80;;;10.23;;
41253;SDS011;26987;59.928;30.306;2023-01-13T15:11:23;21.50;;;10.57;;
41253;SDS011;26987;59.928;30.306;2023-01-13T15:13:55;21.60;;;9.40;;
41253;SDS011;26987;59.928;30.306;2023-01-13T15:16:26;19.40;;;10.23;;
41253;SDS011;26987;59.928;30.306;2023-01-13T15:18:54;23.08;;;10.35;;
41253;SDS011;26987;59.928;30.306;2023-01-13T15:21:24;19.40;;;10.38;;
41253;SDS011;26987;59.928;30.306;2023-01-13T15:23:52;20.90;;;10.10;;
41253;SDS011;26987;59.928;30.306;2023-01-13T15:26:21;21.35;;;10.55;;
41253;SDS011;26987;59.928;30.306;2023-01-13T15:28:50;20.38;;;10.13;;
41253;SDS011;26987;59.928;30.306;2023-01-13T15:31:19;21.00;;;9.98;;
41253;SDS011;26987;59.928;30.306;2023-01-13T15:33:47;19.13;;;9.73;;
41253;SDS011;26987;59.928;30.306;2023-01-13T15:36:21;20.65;;;9.73;;
41253;SDS011;26987;59.928;30.306;2023-01-13T15:38:53;17.98;;;9.82;;
41253;SDS011;26987;59.928;30.306;2023-01-13T15:41:21;21.17;;;9.75;;